createdAt,value
2017-07-07T00:00:09.695Z,0
2017-07-07T00:01:19.982Z,0
2017-07-07T00:02:30.260Z,0
2017-07-07T00:03:40.762Z,0
2017-07-07T00:04:50.724Z,0
2017-07-07T00:06:00.992Z,0
2017-07-07T00:07:11.260Z,0
2017-07-07T00:08:20.581Z,0
2017-07-07T00:09:30.772Z,0
2017-07-07T00:10:40.728Z,0
2017-07-07T00:11:50.734Z,0
2017-07-07T00:13:00.999Z,0
2017-07-07T00:14:11.284Z,0
2017-07-07T00:15:21.488Z,0
2017-07-07T00:16:31.737Z,0
2017-07-07T00:17:42.002Z,0
2017-07-07T00:18:52.294Z,0
2017-07-07T00:20:02.561Z,0
2017-07-07T00:21:13.073Z,0
2017-07-07T00:22:23.536Z,0
2017-07-07T00:23:33.786Z,0
2017-07-07T00:24:44.051Z,0
2017-07-07T00:25:54.006Z,0
2017-07-07T00:27:04.507Z,0
2017-07-07T00:28:14.766Z,0
2017-07-07T00:29:24.728Z,0
2017-07-07T00:30:35.013Z,0
2017-07-07T00:31:45.297Z,0
2017-07-07T00:32:55.831Z,0
2017-07-07T00:34:05.785Z,0
2017-07-07T00:35:16.074Z,0
2017-07-07T00:36:26.349Z,0
2017-07-07T00:37:36.306Z,0
2017-07-07T00:38:46.901Z,0
2017-07-07T00:39:57.180Z,0
2017-07-07T00:41:07.514Z,0
2017-07-07T00:42:17.800Z,0
2017-07-07T00:43:27.766Z,0
2017-07-07T00:44:38.023Z,0
2017-07-07T00:45:48.293Z,0
2017-07-07T00:46:58.576Z,0
2017-07-07T00:48:08.859Z,0
2017-07-07T00:49:19.130Z,0
2017-07-07T00:50:29.688Z,0
2017-07-07T00:51:39.655Z,0
2017-07-07T00:52:49.599Z,0
2017-07-07T00:53:59.238Z,0
2017-07-07T00:55:09.489Z,0
2017-07-07T00:56:20.000Z,0
2017-07-07T00:57:30.270Z,0
2017-07-07T00:58:40.530Z,0
2017-07-07T00:59:50.791Z,0
2017-07-07T01:01:01.065Z,0
2017-07-07T01:02:11.583Z,0
2017-07-07T01:03:21.927Z,0
2017-07-07T01:04:32.182Z,0
2017-07-07T01:05:42.481Z,0
2017-07-07T01:06:52.745Z,0
2017-07-07T01:08:03.281Z,0
2017-07-07T01:09:13.543Z,0
2017-07-07T01:10:23.821Z,0
2017-07-07T01:11:33.768Z,0
2017-07-07T01:12:44.033Z,0
2017-07-07T01:13:54.276Z,0
2017-07-07T01:15:04.527Z,0
2017-07-07T01:16:14.792Z,0
2017-07-07T01:17:25.059Z,0
2017-07-07T01:18:35.004Z,0
2017-07-07T01:19:45.524Z,0
2017-07-07T01:20:55.483Z,0
2017-07-07T01:22:05.751Z,0
2017-07-07T01:23:15.901Z,0
2017-07-07T01:24:26.166Z,0
2017-07-07T01:25:36.730Z,0
2017-07-07T01:26:46.683Z,0
2017-07-07T01:27:56.321Z,0
2017-07-07T01:29:05.977Z,0
2017-07-07T01:30:15.956Z,0
2017-07-07T01:31:26.473Z,0
2017-07-07T01:32:36.738Z,0
2017-07-07T01:33:47.013Z,0
2017-07-07T01:34:57.273Z,0
2017-07-07T01:36:07.543Z,0
2017-07-07T01:37:17.752Z,0
2017-07-07T01:38:28.019Z,0
2017-07-07T01:39:38.274Z,0
2017-07-07T01:40:48.541Z,0
2017-07-07T01:41:58.800Z,0
2017-07-07T01:43:09.324Z,0
2017-07-07T01:44:19.597Z,0
2017-07-07T01:45:29.539Z,0
2017-07-07T01:46:39.806Z,0
2017-07-07T01:47:50.079Z,0
2017-07-07T01:49:00.284Z,0
2017-07-07T01:50:10.549Z,0
2017-07-07T01:51:20.811Z,0
2017-07-07T01:52:31.072Z,0
2017-07-07T01:53:41.040Z,0
2017-07-07T01:54:51.547Z,0
2017-07-07T01:56:01.502Z,0
2017-07-07T01:57:11.763Z,0
2017-07-07T01:58:21.701Z,0
2017-07-07T01:59:31.981Z,0
2017-07-07T02:00:42.516Z,0
2017-07-07T02:01:52.784Z,0
2017-07-07T02:03:03.052Z,0
2017-07-07T02:04:13.327Z,0
2017-07-07T02:05:23.587Z,0
2017-07-07T02:06:34.104Z,0
2017-07-07T02:07:44.362Z,0
2017-07-07T02:08:54.325Z,0
2017-07-07T02:10:04.594Z,0
2017-07-07T02:11:14.895Z,0
2017-07-07T02:12:25.404Z,0
2017-07-07T02:13:35.677Z,0
2017-07-07T02:14:45.946Z,0
2017-07-07T02:15:56.216Z,0
2017-07-07T02:17:06.488Z,0
2017-07-07T02:18:17.071Z,0
2017-07-07T02:19:27.348Z,0
2017-07-07T02:20:37.627Z,0
2017-07-07T02:21:47.889Z,0
2017-07-07T02:22:57.846Z,0
2017-07-07T02:24:08.409Z,0
2017-07-07T02:25:18.680Z,0
2017-07-07T02:26:28.956Z,0
2017-07-07T02:27:38.893Z,0
2017-07-07T02:28:49.163Z,0
2017-07-07T02:29:59.380Z,0
2017-07-07T02:31:09.642Z,0
2017-07-07T02:32:19.919Z,0
2017-07-07T02:33:30.175Z,0
2017-07-07T02:34:40.446Z,0
2017-07-07T02:35:50.964Z,0
2017-07-07T02:37:00.915Z,0
2017-07-07T02:38:11.185Z,0
2017-07-07T02:39:20.819Z,0
2017-07-07T02:40:31.083Z,0
2017-07-07T02:41:41.288Z,0
2017-07-07T02:42:51.551Z,0
2017-07-07T02:44:01.515Z,0
2017-07-07T02:45:11.764Z,5
2017-07-07T02:46:22.034Z,5
2017-07-07T02:47:32.549Z,5
2017-07-07T02:48:42.808Z,5
2017-07-07T02:49:53.084Z,5
2017-07-07T02:51:03.366Z,5
2017-07-07T02:52:13.644Z,5
2017-07-07T02:53:24.157Z,10
2017-07-07T02:54:34.428Z,10
2017-07-07T02:55:44.702Z,10
2017-07-07T02:56:54.977Z,10
2017-07-07T02:58:04.926Z,10
2017-07-07T02:59:15.434Z,15
2017-07-07T03:00:25.696Z,15
2017-07-07T03:01:35.658Z,15
2017-07-07T03:02:45.617Z,15
2017-07-07T03:03:55.879Z,15
2017-07-07T03:05:06.403Z,20
2017-07-07T03:06:16.680Z,20
2017-07-07T03:07:26.639Z,20
2017-07-07T03:08:36.917Z,25
2017-07-07T03:09:47.192Z,25
2017-07-07T03:10:57.723Z,25
2017-07-07T03:12:07.992Z,30
2017-07-07T03:13:17.643Z,30
2017-07-07T03:14:27.901Z,35
2017-07-07T03:15:37.850Z,35
2017-07-07T03:16:48.395Z,40
2017-07-07T03:17:58.363Z,40
2017-07-07T03:19:08.641Z,40
2017-07-07T03:20:18.914Z,45
2017-07-07T03:21:29.168Z,45
2017-07-07T03:22:39.364Z,45
2017-07-07T03:23:49.619Z,45
2017-07-07T03:24:59.891Z,50
2017-07-07T03:26:09.843Z,50
2017-07-07T03:27:20.176Z,55
2017-07-07T03:28:30.705Z,60
2017-07-07T03:29:40.976Z,65
2017-07-07T03:30:51.243Z,65
2017-07-07T03:32:01.521Z,65
2017-07-07T03:33:11.461Z,70
2017-07-07T03:34:21.649Z,70
2017-07-07T03:35:31.914Z,70
2017-07-07T03:36:42.186Z,75
2017-07-07T03:37:52.135Z,80
2017-07-07T03:39:02.099Z,90
2017-07-07T03:40:12.612Z,100
2017-07-07T03:41:22.567Z,110
2017-07-07T03:42:32.896Z,115
2017-07-07T03:43:42.833Z,120
2017-07-07T03:44:52.787Z,115
2017-07-07T03:46:03.298Z,115
2017-07-07T03:47:13.550Z,115
2017-07-07T03:48:23.828Z,115
2017-07-07T03:49:34.096Z,115
2017-07-07T03:50:44.357Z,115
2017-07-07T03:51:54.859Z,110
2017-07-07T03:53:04.819Z,110
2017-07-07T03:54:15.082Z,105
2017-07-07T03:55:25.337Z,100
2017-07-07T03:56:35.290Z,100
2017-07-07T03:57:45.806Z,100
2017-07-07T03:58:55.767Z,100
2017-07-07T04:00:06.052Z,95
2017-07-07T04:01:16.320Z,95
2017-07-07T04:02:26.582Z,90
2017-07-07T04:03:36.792Z,90
2017-07-07T04:04:46.743Z,90
2017-07-07T04:05:56.699Z,90
2017-07-07T04:07:06.955Z,95
2017-07-07T04:08:17.211Z,105
2017-07-07T04:09:27.732Z,105
2017-07-07T04:10:37.690Z,110
2017-07-07T04:11:47.960Z,115
2017-07-07T04:12:58.233Z,120
2017-07-07T04:14:08.187Z,125
2017-07-07T04:15:18.700Z,125
2017-07-07T04:16:28.342Z,125
2017-07-07T04:17:38.616Z,125
2017-07-07T04:18:48.896Z,120
2017-07-07T04:19:59.165Z,120
2017-07-07T04:21:09.684Z,120
2017-07-07T04:22:19.947Z,120
2017-07-07T04:23:30.198Z,120
2017-07-07T04:24:40.468Z,120
2017-07-07T04:25:50.764Z,125
2017-07-07T04:27:01.281Z,130
2017-07-07T04:28:11.766Z,130
2017-07-07T04:29:22.028Z,125
2017-07-07T04:30:31.970Z,125
2017-07-07T04:31:42.230Z,120
2017-07-07T04:32:52.497Z,125
2017-07-07T04:34:02.782Z,130
2017-07-07T04:35:13.052Z,135
2017-07-07T04:36:23.322Z,140
2017-07-07T04:37:33.265Z,140
2017-07-07T04:38:43.769Z,140
2017-07-07T04:39:54.036Z,145
2017-07-07T04:41:04.011Z,145
2017-07-07T04:42:14.294Z,145
2017-07-07T04:43:24.564Z,145
2017-07-07T04:44:35.093Z,145
2017-07-07T04:45:45.369Z,135
2017-07-07T04:46:55.631Z,125
2017-07-07T04:48:05.932Z,115
2017-07-07T04:49:16.195Z,105
2017-07-07T04:50:26.388Z,100
2017-07-07T04:51:36.654Z,105
2017-07-07T04:52:46.916Z,105
2017-07-07T04:53:57.215Z,110
2017-07-07T04:55:07.486Z,115
2017-07-07T04:56:18.002Z,120
2017-07-07T04:57:28.290Z,120
2017-07-07T04:58:38.538Z,120
2017-07-07T04:59:48.488Z,110
2017-07-07T05:00:58.747Z,100
2017-07-07T05:02:08.963Z,90
2017-07-07T05:03:19.238Z,85
2017-07-07T05:04:29.517Z,80
2017-07-07T05:05:39.475Z,75
2017-07-07T05:06:49.751Z,70
2017-07-07T05:08:00.275Z,60
2017-07-07T05:09:10.531Z,50
2017-07-07T05:10:20.798Z,40
2017-07-07T05:11:31.061Z,35
2017-07-07T05:12:41.342Z,30
2017-07-07T05:13:51.909Z,30
2017-07-07T05:15:02.190Z,30
2017-07-07T05:16:12.451Z,30
2017-07-07T05:17:22.730Z,30
2017-07-07T05:18:32.679Z,30
2017-07-07T05:19:43.242Z,35
2017-07-07T05:20:53.202Z,35
2017-07-07T05:22:03.463Z,40
2017-07-07T05:23:13.714Z,40
2017-07-07T05:24:23.349Z,50
2017-07-07T05:25:33.908Z,50
2017-07-07T05:26:44.179Z,55
2017-07-07T05:27:54.135Z,55
2017-07-07T05:29:03.782Z,55
2017-07-07T05:30:13.741Z,60
2017-07-07T05:31:24.242Z,65
2017-07-07T05:32:34.515Z,70
2017-07-07T05:33:44.812Z,80
2017-07-07T05:34:54.451Z,90
2017-07-07T05:36:04.719Z,95
2017-07-07T05:37:15.227Z,105
2017-07-07T05:38:25.189Z,110
2017-07-07T05:39:35.477Z,120
2017-07-07T05:40:45.751Z,130
2017-07-07T05:41:56.034Z,135
2017-07-07T05:43:06.225Z,140
2017-07-07T05:44:16.183Z,150
2017-07-07T05:45:26.469Z,145
2017-07-07T05:46:36.745Z,135
2017-07-07T05:47:47.010Z,130
2017-07-07T05:48:57.594Z,130
2017-07-07T05:50:07.870Z,130
2017-07-07T05:51:18.178Z,135
2017-07-07T05:52:28.461Z,140
2017-07-07T05:53:38.743Z,140
2017-07-07T05:54:49.428Z,145
2017-07-07T05:55:59.698Z,150
2017-07-07T05:57:09.992Z,150
2017-07-07T05:58:19.948Z,160
2017-07-07T05:59:29.905Z,160
2017-07-07T06:00:40.432Z,170
2017-07-07T06:01:50.476Z,180
2017-07-07T06:03:00.739Z,175
2017-07-07T06:04:10.697Z,170
2017-07-07T06:05:20.649Z,160
2017-07-07T06:06:31.215Z,155
2017-07-07T06:07:41.490Z,160
2017-07-07T06:08:51.737Z,160
2017-07-07T06:10:02.028Z,170
2017-07-07T06:11:12.309Z,175
2017-07-07T06:12:22.861Z,175
2017-07-07T06:13:33.145Z,175
2017-07-07T06:14:43.117Z,170
2017-07-07T06:15:53.401Z,170
2017-07-07T06:17:03.733Z,170
2017-07-07T06:18:13.931Z,175
2017-07-07T06:19:23.560Z,180
2017-07-07T06:20:33.521Z,190
2017-07-07T06:21:43.830Z,200
2017-07-07T06:22:54.110Z,210
2017-07-07T06:24:04.673Z,205
2017-07-07T06:25:14.647Z,210
2017-07-07T06:26:24.582Z,215
2017-07-07T06:27:34.865Z,220
2017-07-07T06:28:44.499Z,225
2017-07-07T06:29:55.022Z,235
2017-07-07T06:31:04.990Z,230
2017-07-07T06:32:14.947Z,220
2017-07-07T06:33:24.902Z,220
2017-07-07T06:34:34.847Z,210
2017-07-07T06:35:45.418Z,210
2017-07-07T06:36:55.690Z,205
2017-07-07T06:38:05.968Z,200
2017-07-07T06:39:16.544Z,195
2017-07-07T06:40:26.847Z,175
2017-07-07T06:41:37.435Z,160
2017-07-07T06:42:47.409Z,140
2017-07-07T06:43:57.670Z,120
2017-07-07T06:45:07.987Z,110
2017-07-07T06:46:17.987Z,100
2017-07-07T06:47:28.618Z,95
2017-07-07T06:48:38.894Z,95
2017-07-07T06:49:49.175Z,90
2017-07-07T06:50:59.460Z,95
2017-07-07T06:52:09.440Z,100
2017-07-07T06:53:20.057Z,105
2017-07-07T06:54:30.354Z,105
2017-07-07T06:55:40.650Z,110
2017-07-07T06:56:50.931Z,115
2017-07-07T06:58:00.904Z,120
2017-07-07T06:59:11.753Z,125
2017-07-07T07:00:22.049Z,120
2017-07-07T07:01:32.345Z,115
2017-07-07T07:02:42.305Z,115
2017-07-07T07:03:52.235Z,110
2017-07-07T07:05:02.496Z,105
2017-07-07T07:06:12.457Z,100
2017-07-07T07:07:22.428Z,100
2017-07-07T07:08:32.711Z,100
2017-07-07T07:09:42.983Z,110
2017-07-07T07:10:53.572Z,125
2017-07-07T07:12:03.537Z,130
2017-07-07T07:13:13.832Z,135
2017-07-07T07:14:24.122Z,140
2017-07-07T07:15:33.771Z,140
2017-07-07T07:16:44.351Z,140
2017-07-07T07:17:54.320Z,140
2017-07-07T07:19:04.268Z,150
2017-07-07T07:20:14.559Z,155
2017-07-07T07:21:24.204Z,165
2017-07-07T07:22:34.460Z,175
2017-07-07T07:23:44.717Z,175
2017-07-07T07:24:54.990Z,170
2017-07-07T07:26:05.261Z,170
2017-07-07T07:27:15.593Z,175
2017-07-07T07:28:26.189Z,180
2017-07-07T07:29:36.141Z,180
2017-07-07T07:30:46.413Z,170
2017-07-07T07:31:56.712Z,160
2017-07-07T07:33:06.995Z,135
2017-07-07T07:34:17.575Z,130
2017-07-07T07:35:27.863Z,130
2017-07-07T07:36:38.213Z,140
2017-07-07T07:37:48.494Z,140
2017-07-07T07:38:58.759Z,150
2017-07-07T07:40:08.988Z,165
2017-07-07T07:41:19.281Z,170
2017-07-07T07:42:29.542Z,185
2017-07-07T07:43:39.516Z,195
2017-07-07T07:44:49.487Z,195
2017-07-07T07:46:00.001Z,195
2017-07-07T07:47:10.352Z,185
2017-07-07T07:48:20.616Z,180
2017-07-07T07:49:30.883Z,180
2017-07-07T07:50:41.162Z,175
2017-07-07T07:51:51.683Z,165
2017-07-07T07:53:01.964Z,165
2017-07-07T07:54:12.280Z,165
2017-07-07T07:55:22.587Z,165
2017-07-07T07:56:32.591Z,170
2017-07-07T07:57:42.817Z,175
2017-07-07T07:58:53.086Z,195
2017-07-07T08:00:03.362Z,215
2017-07-07T08:01:13.319Z,245
2017-07-07T08:02:23.590Z,260
2017-07-07T08:03:33.839Z,275
2017-07-07T08:04:44.120Z,285
2017-07-07T08:05:54.383Z,285
2017-07-07T08:07:04.341Z,295
2017-07-07T08:08:14.308Z,305
2017-07-07T08:09:24.891Z,315
2017-07-07T08:10:34.855Z,310
2017-07-07T08:11:44.828Z,285
2017-07-07T08:12:54.823Z,260
2017-07-07T08:14:05.098Z,245
2017-07-07T08:15:15.371Z,225
2017-07-07T08:16:25.635Z,200
2017-07-07T08:17:35.576Z,190
2017-07-07T08:18:45.549Z,185
2017-07-07T08:19:55.526Z,175
2017-07-07T08:21:05.717Z,160
2017-07-07T08:22:16.003Z,160
2017-07-07T08:23:26.266Z,160
2017-07-07T08:24:35.899Z,170
2017-07-07T08:25:45.936Z,185
2017-07-07T08:26:56.441Z,205
2017-07-07T08:28:06.718Z,235
2017-07-07T08:29:16.703Z,265
2017-07-07T08:30:26.974Z,280
2017-07-07T08:31:37.264Z,295
2017-07-07T08:32:47.875Z,290
2017-07-07T08:33:58.161Z,275
2017-07-07T08:35:08.443Z,270
2017-07-07T08:36:18.700Z,235
2017-07-07T08:37:28.374Z,200
2017-07-07T08:38:38.911Z,180
2017-07-07T08:39:48.876Z,165
2017-07-07T08:40:59.142Z,160
2017-07-07T08:42:09.115Z,155
2017-07-07T08:43:19.394Z,145
2017-07-07T08:44:29.914Z,150
2017-07-07T08:45:39.869Z,155
2017-07-07T08:46:49.871Z,160
2017-07-07T08:48:00.167Z,170
2017-07-07T08:49:10.131Z,175
2017-07-07T08:50:20.694Z,185
2017-07-07T08:51:30.646Z,195
2017-07-07T08:52:40.927Z,190
2017-07-07T08:53:51.179Z,175
2017-07-07T08:55:01.477Z,170
2017-07-07T08:56:12.075Z,165
2017-07-07T08:57:22.359Z,175
2017-07-07T08:58:32.324Z,190
2017-07-07T08:59:42.300Z,205
2017-07-07T09:00:52.575Z,210
2017-07-07T09:02:03.145Z,205
2017-07-07T09:03:13.116Z,200
2017-07-07T09:04:23.416Z,190
2017-07-07T09:05:33.684Z,190
2017-07-07T09:06:43.645Z,190
2017-07-07T09:07:54.230Z,185
2017-07-07T09:09:04.497Z,185
2017-07-07T09:10:14.795Z,185
2017-07-07T09:11:25.027Z,185
2017-07-07T09:12:35.312Z,185
2017-07-07T09:13:45.924Z,185
2017-07-07T09:14:56.202Z,190
2017-07-07T09:16:06.479Z,190
2017-07-07T09:17:16.447Z,195
2017-07-07T09:18:26.730Z,200
2017-07-07T09:19:37.255Z,200
2017-07-07T09:20:47.222Z,200
2017-07-07T09:21:57.518Z,200
2017-07-07T09:23:08.010Z,200
2017-07-07T09:24:18.284Z,200
2017-07-07T09:25:28.853Z,205
2017-07-07T09:26:39.140Z,220
2017-07-07T09:27:49.089Z,230
2017-07-07T09:28:59.355Z,240
2017-07-07T09:30:09.651Z,255
2017-07-07T09:31:19.856Z,275
2017-07-07T09:32:30.115Z,300
2017-07-07T09:33:40.061Z,325
2017-07-07T09:34:50.368Z,355
2017-07-07T09:36:00.319Z,390
2017-07-07T09:37:10.845Z,435
2017-07-07T09:38:20.488Z,480
2017-07-07T09:39:30.441Z,505
2017-07-07T09:40:40.401Z,515
2017-07-07T09:41:50.365Z,525
2017-07-07T09:43:00.954Z,555
2017-07-07T09:44:11.192Z,595
2017-07-07T09:45:21.146Z,610
2017-07-07T09:46:31.435Z,625
2017-07-07T09:47:41.720Z,615
2017-07-07T09:48:52.257Z,585
2017-07-07T09:50:02.546Z,595
2017-07-07T09:51:12.854Z,675
2017-07-07T09:52:23.124Z,765
2017-07-07T09:53:33.460Z,845
2017-07-07T09:54:43.998Z,895
2017-07-07T09:55:54.279Z,955
2017-07-07T09:57:04.245Z,1000
2017-07-07T09:58:14.188Z,1020
2017-07-07T09:59:24.482Z,1020
2017-07-07T10:00:35.006Z,990
2017-07-07T10:01:44.984Z,960
2017-07-07T10:02:54.939Z,915
2017-07-07T10:04:05.223Z,885
2017-07-07T10:05:15.485Z,875
2017-07-07T10:06:25.737Z,880
2017-07-07T10:07:36.017Z,900
2017-07-07T10:08:46.304Z,920
2017-07-07T10:09:56.595Z,940
2017-07-07T10:11:06.890Z,965
2017-07-07T10:12:17.103Z,975
2017-07-07T10:13:27.394Z,975
2017-07-07T10:14:37.407Z,960
2017-07-07T10:15:47.370Z,940
2017-07-07T10:16:57.661Z,945
2017-07-07T10:18:08.180Z,955
2017-07-07T10:19:18.450Z,975
2017-07-07T10:20:28.410Z,995
2017-07-07T10:21:38.706Z,1030
2017-07-07T10:22:48.989Z,1130
2017-07-07T10:23:59.571Z,1145
2017-07-07T10:25:09.868Z,1555
2017-07-07T10:26:20.151Z,2735
2017-07-07T10:27:30.424Z,2615
2017-07-07T10:28:40.702Z,2595
2017-07-07T10:29:51.226Z,2635
2017-07-07T10:31:01.499Z,2715
2017-07-07T10:32:11.478Z,2750
2017-07-07T10:33:21.453Z,2605
2017-07-07T10:34:31.992Z,2475
2017-07-07T10:35:42.257Z,2515
2017-07-07T10:36:52.553Z,2525
2017-07-07T10:38:02.833Z,2565
2017-07-07T10:39:13.146Z,2625
2017-07-07T10:40:23.429Z,2680
2017-07-07T10:41:34.029Z,2735
2017-07-07T10:42:44.354Z,2730
2017-07-07T10:43:54.323Z,2645
2017-07-07T10:45:04.619Z,2755
2017-07-07T10:46:14.884Z,2620
2017-07-07T10:47:25.427Z,2640
2017-07-07T10:48:35.694Z,2670
2017-07-07T10:49:45.978Z,2525
2017-07-07T10:50:56.267Z,2295
2017-07-07T10:52:06.549Z,2505
2017-07-07T10:53:16.808Z,2545
2017-07-07T10:54:27.095Z,2435
2017-07-07T10:55:37.124Z,2505
2017-07-07T10:56:47.432Z,2740
2017-07-07T10:57:57.425Z,2805
2017-07-07T10:59:07.983Z,2720
2017-07-07T11:00:17.979Z,2725
2017-07-07T11:01:27.949Z,2740
2017-07-07T11:02:37.617Z,2685
2017-07-07T11:03:47.904Z,2670
2017-07-07T11:04:58.474Z,2755
2017-07-07T11:06:08.756Z,2745
2017-07-07T11:07:18.727Z,2825
2017-07-07T11:08:29.036Z,2785
2017-07-07T11:09:39.321Z,2785
2017-07-07T11:10:49.853Z,2785
2017-07-07T11:11:59.813Z,2795
2017-07-07T11:13:10.099Z,2780
2017-07-07T11:14:20.368Z,2775
2017-07-07T11:15:30.338Z,2810
2017-07-07T11:16:40.565Z,2935
2017-07-07T11:17:50.524Z,2975
2017-07-07T11:19:00.821Z,2815
2017-07-07T11:20:10.789Z,2770
2017-07-07T11:21:20.806Z,2850
2017-07-07T11:22:31.357Z,2840
2017-07-07T11:23:41.659Z,2800
2017-07-07T11:24:51.962Z,2875
2017-07-07T11:26:02.277Z,2825
2017-07-07T11:27:12.252Z,2860
2017-07-07T11:28:22.792Z,2985
2017-07-07T11:29:32.776Z,3040
2017-07-07T11:30:42.438Z,2935
2017-07-07T11:31:52.752Z,2910
2017-07-07T11:33:03.049Z,2970
2017-07-07T11:34:13.585Z,3050
2017-07-07T11:35:23.890Z,3050
2017-07-07T11:36:34.187Z,3015
2017-07-07T11:37:44.510Z,3065
2017-07-07T11:38:54.808Z,3130
2017-07-07T11:40:05.387Z,3165
2017-07-07T11:41:15.362Z,3110
2017-07-07T11:42:25.658Z,3125
2017-07-07T11:43:36.153Z,3175
2017-07-07T11:44:46.140Z,3115
2017-07-07T11:45:56.761Z,2930
2017-07-07T11:47:07.052Z,2855
2017-07-07T11:48:17.351Z,2955
2017-07-07T11:49:27.648Z,3160
2017-07-07T11:50:37.956Z,3275
2017-07-07T11:51:48.221Z,3235
2017-07-07T11:52:58.204Z,3105
2017-07-07T11:54:08.180Z,2955
2017-07-07T11:55:18.459Z,2750
2017-07-07T11:56:28.133Z,2775
2017-07-07T11:57:38.731Z,3100
2017-07-07T11:58:48.705Z,3210
2017-07-07T11:59:59.005Z,3180
2017-07-07T12:01:09.367Z,3200
2017-07-07T12:02:19.668Z,3235
2017-07-07T12:03:29.955Z,3265
2017-07-07T12:04:39.956Z,3200
2017-07-07T12:05:50.224Z,3220
2017-07-07T12:07:00.508Z,3285
2017-07-07T12:08:10.830Z,3325
2017-07-07T12:09:21.433Z,3210
2017-07-07T12:10:31.402Z,3190
2017-07-07T12:11:41.352Z,3250
2017-07-07T12:12:51.344Z,3370
2017-07-07T12:14:01.657Z,3350
2017-07-07T12:15:11.948Z,3230
2017-07-07T12:16:22.239Z,2920
2017-07-07T12:17:32.222Z,3210
2017-07-07T12:18:42.526Z,3105
2017-07-07T12:19:52.817Z,3195
2017-07-07T12:21:03.374Z,3270
2017-07-07T12:22:13.763Z,3190
2017-07-07T12:23:24.048Z,3000
2017-07-07T12:24:34.012Z,3015
2017-07-07T12:25:43.980Z,3200
2017-07-07T12:26:54.609Z,3345
2017-07-07T12:28:04.891Z,3440
2017-07-07T12:29:15.169Z,3400
2017-07-07T12:30:25.469Z,3320
2017-07-07T12:31:35.457Z,3240
2017-07-07T12:32:45.671Z,3190
2017-07-07T12:33:55.947Z,3185
2017-07-07T12:35:06.233Z,3265
2017-07-07T12:36:16.534Z,3295
2017-07-07T12:37:26.494Z,3315
2017-07-07T12:38:37.078Z,3280
2017-07-07T12:39:47.402Z,2985
2017-07-07T12:40:57.377Z,3255
2017-07-07T12:42:07.656Z,3425
2017-07-07T12:43:17.930Z,3450
2017-07-07T12:44:28.141Z,3125
2017-07-07T12:45:38.103Z,3205
2017-07-07T12:46:48.392Z,3420
2017-07-07T12:47:58.675Z,3365
2017-07-07T12:49:08.958Z,3260
2017-07-07T12:50:19.567Z,3185
2017-07-07T12:51:29.852Z,3190
2017-07-07T12:52:40.126Z,3215
2017-07-07T12:53:50.111Z,3095
2017-07-07T12:55:00.061Z,3090
2017-07-07T12:56:10.604Z,3340
2017-07-07T12:57:20.569Z,3200
2017-07-07T12:58:30.542Z,2940
2017-07-07T12:59:40.827Z,3035
2017-07-07T13:00:50.787Z,3260
2017-07-07T13:02:01.379Z,3330
2017-07-07T13:03:11.670Z,3365
2017-07-07T13:04:22.014Z,3410
2017-07-07T13:05:32.307Z,3360
2017-07-07T13:06:42.604Z,3245
2017-07-07T13:07:53.198Z,1995
2017-07-07T13:09:03.489Z,1235
2017-07-07T13:10:13.792Z,3365
2017-07-07T13:11:24.069Z,3415
2017-07-07T13:12:34.377Z,3360
2017-07-07T13:13:44.971Z,3275
2017-07-07T13:14:55.254Z,3350
2017-07-07T13:16:05.536Z,3415
2017-07-07T13:17:15.812Z,3450
2017-07-07T13:18:26.084Z,3445
2017-07-07T13:19:36.625Z,2295
2017-07-07T13:20:46.915Z,3325
2017-07-07T13:21:56.898Z,3280
2017-07-07T13:23:06.855Z,3310
2017-07-07T13:24:16.823Z,3340
2017-07-07T13:25:27.407Z,3440
2017-07-07T13:26:37.386Z,3440
2017-07-07T13:27:47.047Z,3520
2017-07-07T13:28:57.330Z,3430
2017-07-07T13:30:07.293Z,3510
2017-07-07T13:31:17.557Z,2760
2017-07-07T13:32:27.852Z,3280
2017-07-07T13:33:37.492Z,3440
2017-07-07T13:34:47.780Z,3635
2017-07-07T13:35:57.446Z,3610
2017-07-07T13:37:07.977Z,3670
2017-07-07T13:38:18.255Z,3450
2017-07-07T13:39:28.590Z,3120
2017-07-07T13:40:38.578Z,2970
2017-07-07T13:41:48.915Z,1510
2017-07-07T13:42:59.208Z,3005
2017-07-07T13:44:09.165Z,2245
2017-07-07T13:45:19.457Z,1220
2017-07-07T13:46:29.491Z,1120
2017-07-07T13:47:39.779Z,960
2017-07-07T13:48:50.359Z,995
2017-07-07T13:50:00.646Z,2930
2017-07-07T13:51:10.601Z,3305
2017-07-07T13:52:20.926Z,3420
2017-07-07T13:53:31.219Z,3260
2017-07-07T13:54:41.457Z,3305
2017-07-07T13:55:51.738Z,3205
2017-07-07T13:57:02.044Z,3210
2017-07-07T13:58:12.324Z,2160
2017-07-07T13:59:22.623Z,2790
2017-07-07T14:00:32.518Z,2780
2017-07-07T14:01:42.834Z,2875
2017-07-07T14:02:53.128Z,3050
2017-07-07T14:04:03.406Z,3010
2017-07-07T14:05:13.372Z,2765
2017-07-07T14:06:23.640Z,2745
2017-07-07T14:07:33.929Z,2620
2017-07-07T14:08:43.941Z,2905
2017-07-07T14:09:54.224Z,3215
2017-07-07T14:11:03.876Z,3505
2017-07-07T14:12:14.105Z,3570
2017-07-07T14:13:24.080Z,2840
2017-07-07T14:14:34.376Z,915
2017-07-07T14:15:44.355Z,1315
2017-07-07T14:16:54.648Z,3050
2017-07-07T14:18:05.322Z,3030
2017-07-07T14:19:15.615Z,1040
2017-07-07T14:20:25.586Z,1070
2017-07-07T14:21:35.856Z,870
2017-07-07T14:22:46.127Z,800
2017-07-07T14:23:56.016Z,860
2017-07-07T14:25:06.299Z,1780
2017-07-07T14:26:16.264Z,2920
2017-07-07T14:27:26.547Z,2980
2017-07-07T14:28:36.830Z,3320
2017-07-07T14:29:47.379Z,1745
2017-07-07T14:30:57.359Z,2640
2017-07-07T14:32:07.311Z,2800
2017-07-07T14:33:17.580Z,1025
2017-07-07T14:34:27.921Z,905
2017-07-07T14:35:38.503Z,1060
2017-07-07T14:36:48.779Z,1175
2017-07-07T14:37:59.101Z,1210
2017-07-07T14:39:09.371Z,1560
2017-07-07T14:40:19.664Z,3135
2017-07-07T14:41:29.947Z,3070
2017-07-07T14:42:40.267Z,3075
2017-07-07T14:43:50.239Z,2925
2017-07-07T14:45:00.544Z,2965
2017-07-07T14:46:10.833Z,1845
2017-07-07T14:47:21.365Z,2840
2017-07-07T14:48:31.656Z,2595
2017-07-07T14:49:41.627Z,2555
2017-07-07T14:50:51.921Z,2215
2017-07-07T14:52:02.201Z,2020
2017-07-07T14:53:12.745Z,970
2017-07-07T14:54:23.031Z,895
2017-07-07T14:55:33.000Z,850
2017-07-07T14:56:43.008Z,830
2017-07-07T14:57:52.988Z,845
2017-07-07T14:59:03.567Z,840
2017-07-07T15:00:13.563Z,895
2017-07-07T15:01:23.848Z,2400
2017-07-07T15:02:34.152Z,2630
2017-07-07T15:03:44.453Z,2980
2017-07-07T15:04:55.031Z,2705
2017-07-07T15:06:05.322Z,2515
2017-07-07T15:07:15.291Z,2510
2017-07-07T15:08:25.571Z,2310
2017-07-07T15:09:35.848Z,1550
2017-07-07T15:10:46.429Z,2230
2017-07-07T15:11:56.397Z,2755
2017-07-07T15:13:06.689Z,2905
2017-07-07T15:14:16.989Z,1065
2017-07-07T15:15:26.634Z,960
2017-07-07T15:16:36.893Z,940
2017-07-07T15:17:47.179Z,1980
2017-07-07T15:18:57.461Z,1485
2017-07-07T15:20:07.436Z,850
2017-07-07T15:21:17.732Z,1025
2017-07-07T15:22:27.980Z,925
2017-07-07T15:23:38.235Z,875
2017-07-07T15:24:48.568Z,815
2017-07-07T15:25:58.231Z,785
2017-07-07T15:27:08.191Z,735
2017-07-07T15:28:18.537Z,695
2017-07-07T15:29:28.550Z,660
2017-07-07T15:30:38.856Z,635
2017-07-07T15:31:49.148Z,605
2017-07-07T15:32:59.459Z,575
2017-07-07T15:34:09.715Z,545
2017-07-07T15:35:19.994Z,525
2017-07-07T15:36:29.670Z,505
2017-07-07T15:37:39.655Z,485
2017-07-07T15:38:49.615Z,470
2017-07-07T15:40:00.213Z,455
2017-07-07T15:41:10.484Z,440
2017-07-07T15:42:20.463Z,425
2017-07-07T15:43:30.432Z,415
2017-07-07T15:44:40.418Z,410
2017-07-07T15:45:50.987Z,405
2017-07-07T15:47:01.266Z,385
2017-07-07T15:48:11.556Z,370
2017-07-07T15:49:21.513Z,350
2017-07-07T15:50:31.804Z,325
2017-07-07T15:51:42.023Z,295
2017-07-07T15:52:51.975Z,280
2017-07-07T15:54:02.240Z,255
2017-07-07T15:55:12.506Z,245
2017-07-07T15:56:22.787Z,230
2017-07-07T15:57:33.322Z,210
2017-07-07T15:58:43.604Z,180
2017-07-07T15:59:53.586Z,150
2017-07-07T16:01:03.877Z,125
2017-07-07T16:02:14.188Z,115
2017-07-07T16:03:24.076Z,110
2017-07-07T16:04:34.039Z,130
2017-07-07T16:05:44.316Z,155
2017-07-07T16:06:54.286Z,190
2017-07-07T16:08:04.560Z,230
2017-07-07T16:09:15.154Z,250
2017-07-07T16:10:25.182Z,255
2017-07-07T16:11:35.455Z,250